Airfield :
LOGIN :

Register | Disclaimer

   EN    FR    IT 

 










Legend :    VFR   Marginal VFR   IFR   Intensive IFR   Very Intensive IFR
Visi :
Ceiling :
>= 8 km
>= 3000ft
5 to 8 km
1000 to 3000 ft
1500m to 5 km
500 to 1000 ft
800 to 1500m
200 to 500 ft
< 800m
< 200 ft
Symbols :   Thunderstorms  Fog  Heavy snow  Heavy precipitations  Wind > 20 kt
SIGMETs :     Misc.  Thunderstorms  Icing  Turbulence  Mountain Waves  Volcanic Ashes






- Airport Elevation : 13 ft
- IATA code : LYX


EGMD - Lydd

CURRENT METAR :
  • 072050Z AUTO 06011KT 9999 NCD 11/08 Q1027

EXPIRED METARs :
  • 072020Z AUTO 06011KT 9999 NCD 12/08 Q1027
  • 071950Z AUTO 06011KT 9999 NCD 11/08 Q1027
  • 071920Z AUTO 06011KT 9999 NCD 12/08 Q1027
  • 071850Z AUTO 06012KT 9999 NCD 12/08 Q1027
  • 071820Z AUTO 06012KT 9999 NCD 12/08 Q1027

TAF TAF EGMD
Valid from the 07 at 21:00 until the 08 at 06:00 UTC


071956Z 0721/0806 05008KT 9999 FEW045
PROB40 0722/0806 7000
ATIS : +44 1797 322 422



MET'MAP, your aeronautical weather chart ! - Copyright ORBIFLY December 2007 - Disclaimer

ORBIFLY MET'MAP TEAM :

Programming & Development : Alexandra Zaïnal
Concept & original design : Baudouin d'Aumeries
Assistance for programming : Marc-Olivier Méhu
Technical & hardware support : Manuel Goepfert

Contact : metmap@orbifly.com




SOURCES & CREDITS :

   NOAA